sensor_id;sensor_type;location;lat;lon;timestamp;P1;durP1;ratioP1;P2;durP2;ratioP2
20154;SDS011;10238;49.556;10.956;2023-05-07T00:01:27;5.53;;;5.03;;
20154;SDS011;10238;49.556;10.956;2023-05-07T00:04:15;5.65;;;5.22;;
20154;SDS011;10238;49.556;10.956;2023-05-07T00:07:03;6.30;;;5.78;;
20154;SDS011;10238;49.556;10.956;2023-05-07T00:09:51;5.65;;;5.25;;
20154;SDS011;10238;49.556;10.956;2023-05-07T00:12:40;5.40;;;5.10;;
20154;SDS011;10238;49.556;10.956;2023-05-07T00:15:28;6.03;;;5.53;;
20154;SDS011;10238;49.556;10.956;2023-05-07T00:18:16;5.90;;;5.50;;
20154;SDS011;10238;49.556;10.956;2023-05-07T00:21:06;5.90;;;5.50;;
20154;SDS011;10238;49.556;10.956;2023-05-07T00:23:54;6.72;;;6.22;;
20154;SDS011;10238;49.556;10.956;2023-05-07T00:26:42;6.38;;;5.97;;
20154;SDS011;10238;49.556;10.956;2023-05-07T00:29:31;6.25;;;5.85;;
20154;SDS011;10238;49.556;10.956;2023-05-07T00:32:19;6.60;;;6.15;;
20154;SDS011;10238;49.556;10.956;2023-05-07T00:35:07;6.57;;;6.18;;
20154;SDS011;10238;49.556;10.956;2023-05-07T00:37:56;6.45;;;6.05;;
20154;SDS011;10238;49.556;10.956;2023-05-07T00:40:44;6.95;;;6.25;;
20154;SDS011;10238;49.556;10.956;2023-05-07T00:43:32;7.50;;;7.00;;
20154;SDS011;10238;49.556;10.956;2023-05-07T00:46:21;6.90;;;6.40;;
20154;SDS011;10238;49.556;10.956;2023-05-07T00:49:10;7.20;;;6.80;;
20154;SDS011;10238;49.556;10.956;2023-05-07T00:51:58;7.28;;;6.78;;
20154;SDS011;10238;49.556;10.956;2023-05-07T00:54:46;7.70;;;7.22;;
20154;SDS011;10238;49.556;10.956;2023-05-07T00:57:35;8.10;;;7.60;;
20154;SDS011;10238;49.556;10.956;2023-05-07T01:00:23;8.10;;;7.60;;
20154;SDS011;10238;49.556;10.956;2023-05-07T01:03:14;7.85;;;7.45;;
20154;SDS011;10238;49.556;10.956;2023-05-07T01:06:02;8.05;;;7.55;;
20154;SDS011;10238;49.556;10.956;2023-05-07T01:08:55;8.15;;;7.75;;
20154;SDS011;10238;49.556;10.956;2023-05-07T01:11:43;8.10;;;7.70;;
20154;SDS011;10238;49.556;10.956;2023-05-07T01:14:31;8.57;;;8.10;;
20154;SDS011;10238;49.556;10.956;2023-05-07T01:17:19;8.20;;;7.80;;
20154;SDS011;10238;49.556;10.956;2023-05-07T01:20:09;8.60;;;8.05;;
20154;SDS011;10238;49.556;10.956;2023-05-07T01:23:00;8.75;;;8.25;;
20154;SDS011;10238;49.556;10.956;2023-05-07T01:25:53;8.63;;;8.00;;
20154;SDS011;10238;49.556;10.956;2023-05-07T01:28:41;8.45;;;7.97;;
20154;SDS011;10238;49.556;10.956;2023-05-07T01:31:29;8.10;;;7.63;;
20154;SDS011;10238;49.556;10.956;2023-05-07T01:34:18;7.75;;;7.35;;
20154;SDS011;10238;49.556;10.956;2023-05-07T01:37:08;7.40;;;7.00;;
20154;SDS011;10238;49.556;10.956;2023-05-07T01:39:58;7.13;;;6.70;;
20154;SDS011;10238;49.556;10.956;2023-05-07T01:42:47;6.93;;;6.32;;
20154;SDS011;10238;49.556;10.956;2023-05-07T01:45:35;6.93;;;6.47;;
20154;SDS011;10238;49.556;10.956;2023-05-07T01:48:23;7.05;;;6.60;;
20154;SDS011;10238;49.556;10.956;2023-05-07T01:51:12;6.90;;;6.50;;
20154;SDS011;10238;49.556;10.956;2023-05-07T01:54:00;6.60;;;6.20;;
20154;SDS011;10238;49.556;10.956;2023-05-07T01:56:49;6.95;;;6.35;;
20154;SDS011;10238;49.556;10.956;2023-05-07T01:59:38;6.88;;;6.43;;
20154;SDS011;10238;49.556;10.956;2023-05-07T02:02:26;6.95;;;6.45;;
20154;SDS011;10238;49.556;10.956;2023-05-07T02:05:14;6.28;;;5.97;;
20154;SDS011;10238;49.556;10.956;2023-05-07T02:08:02;6.43;;;5.93;;
20154;SDS011;10238;49.556;10.956;2023-05-07T02:10:50;6.45;;;6.05;;
20154;SDS011;10238;49.556;10.956;2023-05-07T02:13:41;6.40;;;5.95;;
20154;SDS011;10238;49.556;10.956;2023-05-07T02:16:29;6.32;;;5.93;;
20154;SDS011;10238;49.556;10.956;2023-05-07T02:19:16;6.35;;;5.80;;
20154;SDS011;10238;49.556;10.956;2023-05-07T02:22:06;6.10;;;5.70;;
20154;SDS011;10238;49.556;10.956;2023-05-07T02:24:54;5.57;;;5.18;;
20154;SDS011;10238;49.556;10.956;2023-05-07T02:27:42;5.22;;;4.93;;
20154;SDS011;10238;49.556;10.956;2023-05-07T02:30:31;5.43;;;5.00;;
20154;SDS011;10238;49.556;10.956;2023-05-07T02:33:19;5.22;;;4.82;;
20154;SDS011;10238;49.556;10.956;2023-05-07T02:36:07;4.75;;;4.35;;
20154;SDS011;10238;49.556;10.956;2023-05-07T02:38:56;3.85;;;3.33;;
20154;SDS011;10238;49.556;10.956;2023-05-07T02:41:46;3.90;;;3.50;;
20154;SDS011;10238;49.556;10.956;2023-05-07T02:44:34;3.22;;;3.03;;
20154;SDS011;10238;49.556;10.956;2023-05-07T02:47:24;3.70;;;3.40;;
20154;SDS011;10238;49.556;10.956;2023-05-07T02:50:13;3.85;;;3.50;;
20154;SDS011;10238;49.556;10.956;2023-05-07T02:53:02;3.40;;;3.13;;
20154;SDS011;10238;49.556;10.956;2023-05-07T02:55:50;3.50;;;3.20;;
20154;SDS011;10238;49.556;10.956;2023-05-07T02:58:38;3.35;;;3.13;;
20154;SDS011;10238;49.556;10.956;2023-05-07T03:01:26;3.47;;;3.08;;
20154;SDS011;10238;49.556;10.956;2023-05-07T03:04:15;3.53;;;3.33;;
20154;SDS011;10238;49.556;10.956;2023-05-07T03:07:03;3.65;;;3.45;;
20154;SDS011;10238;49.556;10.956;2023-05-07T03:09:51;3.72;;;3.53;;
20154;SDS011;10238;49.556;10.956;2023-05-07T03:12:39;4.05;;;3.75;;
20154;SDS011;10238;49.556;10.956;2023-05-07T03:15:27;4.30;;;4.00;;
20154;SDS011;10238;49.556;10.956;2023-05-07T03:18:15;4.80;;;4.20;;
20154;SDS011;10238;49.556;10.956;2023-05-07T03:21:05;4.47;;;4.18;;
20154;SDS011;10238;49.556;10.956;2023-05-07T03:23:52;4.28;;;4.05;;
20154;SDS011;10238;49.556;10.956;2023-05-07T03:26:41;4.55;;;4.25;;
20154;SDS011;10238;49.556;10.956;2023-05-07T03:29:29;4.40;;;4.10;;
20154;SDS011;10238;49.556;10.956;2023-05-07T03:32:17;4.30;;;4.00;;
20154;SDS011;10238;49.556;10.956;2023-05-07T03:35:05;3.63;;;3.40;;
20154;SDS011;10238;49.556;10.956;2023-05-07T03:37:55;3.72;;;3.40;;
20154;SDS011;10238;49.556;10.956;2023-05-07T03:40:43;3.65;;;3.30;;
20154;SDS011;10238;49.556;10.956;2023-05-07T03:43:31;3.53;;;3.22;;
20154;SDS011;10238;49.556;10.956;2023-05-07T03:46:18;3.28;;;3.08;;
20154;SDS011;10238;49.556;10.956;2023-05-07T03:49:06;3.45;;;3.25;;
20154;SDS011;10238;49.556;10.956;2023-05-07T03:51:54;4.50;;;3.33;;
20154;SDS011;10238;49.556;10.956;2023-05-07T03:54:44;3.90;;;3.53;;
20154;SDS011;10238;49.556;10.956;2023-05-07T03:57:32;4.45;;;4.00;;
20154;SDS011;10238;49.556;10.956;2023-05-07T04:00:20;4.82;;;4.43;;
20154;SDS011;10238;49.556;10.956;2023-05-07T04:03:08;4.72;;;4.43;;
20154;SDS011;10238;49.556;10.956;2023-05-07T04:05:56;5.93;;;5.50;;
20154;SDS011;10238;49.556;10.956;2023-05-07T04:08:44;5.40;;;4.90;;
20154;SDS011;10238;49.556;10.956;2023-05-07T04:11:34;5.80;;;4.70;;
20154;SDS011;10238;49.556;10.956;2023-05-07T04:14:22;4.72;;;4.43;;
20154;SDS011;10238;49.556;10.956;2023-05-07T04:17:10;5.03;;;4.72;;
20154;SDS011;10238;49.556;10.956;2023-05-07T04:19:57;5.43;;;4.93;;
20154;SDS011;10238;49.556;10.956;2023-05-07T04:22:47;5.80;;;5.45;;
20154;SDS011;10238;49.556;10.956;2023-05-07T04:25:35;6.57;;;6.18;;
20154;SDS011;10238;49.556;10.956;2023-05-07T04:28:24;8.00;;;7.55;;
20154;SDS011;10238;49.556;10.956;2023-05-07T04:31:12;7.45;;;7.05;;
20154;SDS011;10238;49.556;10.956;2023-05-07T04:34:00;6.97;;;6.57;;
20154;SDS011;10238;49.556;10.956;2023-05-07T04:36:48;7.22;;;6.63;;
20154;SDS011;10238;49.556;10.956;2023-05-07T04:39:36;7.28;;;6.88;;
20154;SDS011;10238;49.556;10.956;2023-05-07T04:42:24;6.60;;;5.95;;
20154;SDS011;10238;49.556;10.956;2023-05-07T04:45:14;7.15;;;6.65;;
20154;SDS011;10238;49.556;10.956;2023-05-07T04:48:02;5.43;;;5.13;;
20154;SDS011;10238;49.556;10.956;2023-05-07T04:50:50;4.85;;;4.55;;
20154;SDS011;10238;49.556;10.956;2023-05-07T04:53:38;7.40;;;5.78;;
20154;SDS011;10238;49.556;10.956;2023-05-07T04:56:27;5.28;;;4.78;;
20154;SDS011;10238;49.556;10.956;2023-05-07T04:59:15;7.47;;;4.57;;
20154;SDS011;10238;49.556;10.956;2023-05-07T05:02:05;6.30;;;5.72;;
20154;SDS011;10238;49.556;10.956;2023-05-07T05:04:53;5.35;;;4.90;;
20154;SDS011;10238;49.556;10.956;2023-05-07T05:07:41;5.57;;;5.00;;
20154;SDS011;10238;49.556;10.956;2023-05-07T05:10:29;5.57;;;5.00;;
20154;SDS011;10238;49.556;10.956;2023-05-07T05:13:17;6.30;;;5.65;;
20154;SDS011;10238;49.556;10.956;2023-05-07T05:16:05;5.10;;;4.22;;
20154;SDS011;10238;49.556;10.956;2023-05-07T05:18:54;5.07;;;4.68;;
20154;SDS011;10238;49.556;10.956;2023-05-07T05:21:42;5.40;;;4.95;;
20154;SDS011;10238;49.556;10.956;2023-05-07T05:24:30;9.40;;;7.15;;
20154;SDS011;10238;49.556;10.956;2023-05-07T05:27:17;7.03;;;6.00;;
20154;SDS011;10238;49.556;10.956;2023-05-07T05:30:06;8.48;;;6.50;;
20154;SDS011;10238;49.556;10.956;2023-05-07T05:32:54;8.98;;;6.65;;
20154;SDS011;10238;49.556;10.956;2023-05-07T05:35:44;7.10;;;6.43;;
20154;SDS011;10238;49.556;10.956;2023-05-07T05:38:32;5.72;;;5.32;;
20154;SDS011;10238;49.556;10.956;2023-05-07T05:41:20;7.72;;;6.90;;
20154;SDS011;10238;49.556;10.956;2023-05-07T05:44:07;9.98;;;8.63;;
20154;SDS011;10238;49.556;10.956;2023-05-07T05:46:56;9.10;;;8.18;;
20154;SDS011;10238;49.556;10.956;2023-05-07T05:49:44;8.82;;;7.93;;
20154;SDS011;10238;49.556;10.956;2023-05-07T05:52:34;9.48;;;7.78;;
20154;SDS011;10238;49.556;10.956;2023-05-07T05:55:22;8.02;;;7.25;;
20154;SDS011;10238;49.556;10.956;2023-05-07T05:58:10;6.15;;;5.55;;
20154;SDS011;10238;49.556;10.956;2023-05-07T06:00:58;7.82;;;6.72;;
20154;SDS011;10238;49.556;10.956;2023-05-07T06:03:48;6.05;;;5.53;;
20154;SDS011;10238;49.556;10.956;2023-05-07T06:06:36;7.32;;;6.03;;
20154;SDS011;10238;49.556;10.956;2023-05-07T06:09:25;9.20;;;8.35;;
20154;SDS011;10238;49.556;10.956;2023-05-07T06:12:13;9.95;;;9.20;;
20154;SDS011;10238;49.556;10.956;2023-05-07T06:15:01;6.70;;;6.10;;
20154;SDS011;10238;49.556;10.956;2023-05-07T06:17:49;10.63;;;9.85;;
20154;SDS011;10238;49.556;10.956;2023-05-07T06:20:37;6.43;;;5.82;;
20154;SDS011;10238;49.556;10.956;2023-05-07T06:23:26;8.35;;;7.60;;
20154;SDS011;10238;49.556;10.956;2023-05-07T06:26:15;7.95;;;7.35;;
20154;SDS011;10238;49.556;10.956;2023-05-07T06:29:03;8.95;;;8.15;;
20154;SDS011;10238;49.556;10.956;2023-05-07T06:31:51;8.60;;;7.93;;
20154;SDS011;10238;49.556;10.956;2023-05-07T06:34:40;6.68;;;6.07;;
20154;SDS011;10238;49.556;10.956;2023-05-07T06:37:28;6.45;;;5.88;;
20154;SDS011;10238;49.556;10.956;2023-05-07T06:40:16;8.77;;;7.95;;
20154;SDS011;10238;49.556;10.956;2023-05-07T06:43:05;7.43;;;6.72;;
20154;SDS011;10238;49.556;10.956;2023-05-07T06:45:53;6.60;;;6.05;;
20154;SDS011;10238;49.556;10.956;2023-05-07T06:48:42;8.10;;;7.40;;
20154;SDS011;10238;49.556;10.956;2023-05-07T06:51:30;7.00;;;6.40;;
20154;SDS011;10238;49.556;10.956;2023-05-07T06:54:18;8.75;;;8.05;;
20154;SDS011;10238;49.556;10.956;2023-05-07T06:57:06;7.82;;;7.03;;
20154;SDS011;10238;49.556;10.956;2023-05-07T06:59:55;10.68;;;9.95;;
20154;SDS011;10238;49.556;10.956;2023-05-07T07:02:43;9.32;;;8.63;;
20154;SDS011;10238;49.556;10.956;2023-05-07T07:05:31;8.18;;;6.82;;
20154;SDS011;10238;49.556;10.956;2023-05-07T07:08:19;12.75;;;11.55;;
20154;SDS011;10238;49.556;10.956;2023-05-07T07:11:07;8.00;;;5.60;;
20154;SDS011;10238;49.556;10.956;2023-05-07T07:13:56;7.68;;;7.03;;
20154;SDS011;10238;49.556;10.956;2023-05-07T07:16:46;16.90;;;15.80;;
20154;SDS011;10238;49.556;10.956;2023-05-07T07:19:33;8.93;;;8.13;;
20154;SDS011;10238;49.556;10.956;2023-05-07T07:22:24;9.38;;;8.73;;
20154;SDS011;10238;49.556;10.956;2023-05-07T07:25:12;6.40;;;5.88;;
20154;SDS011;10238;49.556;10.956;2023-05-07T07:28:00;6.70;;;6.05;;
20154;SDS011;10238;49.556;10.956;2023-05-07T07:30:49;6.53;;;5.93;;
20154;SDS011;10238;49.556;10.956;2023-05-07T07:33:39;5.13;;;4.70;;
20154;SDS011;10238;49.556;10.956;2023-05-07T07:36:27;6.85;;;6.15;;
20154;SDS011;10238;49.556;10.956;2023-05-07T07:39:30;6.38;;;5.63;;
20154;SDS011;10238;49.556;10.956;2023-05-07T07:42:18;7.18;;;5.60;;
20154;SDS011;10238;49.556;10.956;2023-05-07T07:45:06;7.32;;;6.18;;
20154;SDS011;10238;49.556;10.956;2023-05-07T07:47:54;6.55;;;5.93;;
20154;SDS011;10238;49.556;10.956;2023-05-07T07:50:44;8.88;;;7.97;;
20154;SDS011;10238;49.556;10.956;2023-05-07T07:53:34;6.30;;;5.70;;
20154;SDS011;10238;49.556;10.956;2023-05-07T07:56:22;6.63;;;4.88;;
20154;SDS011;10238;49.556;10.956;2023-05-07T07:59:10;5.68;;;4.78;;
20154;SDS011;10238;49.556;10.956;2023-05-07T08:01:59;5.38;;;4.88;;
20154;SDS011;10238;49.556;10.956;2023-05-07T08:04:47;6.63;;;5.15;;
20154;SDS011;10238;49.556;10.956;2023-05-07T08:07:36;5.90;;;5.38;;
20154;SDS011;10238;49.556;10.956;2023-05-07T08:10:24;6.07;;;5.47;;
20154;SDS011;10238;49.556;10.956;2023-05-07T08:13:12;6.13;;;5.63;;
20154;SDS011;10238;49.556;10.956;2023-05-07T08:16:01;6.07;;;5.65;;
20154;SDS011;10238;49.556;10.956;2023-05-07T08:18:49;6.65;;;6.05;;
20154;SDS011;10238;49.556;10.956;2023-05-07T08:21:38;6.25;;;5.75;;
20154;SDS011;10238;49.556;10.956;2023-05-07T08:24:27;6.30;;;5.80;;
20154;SDS011;10238;49.556;10.956;2023-05-07T08:27:15;6.82;;;6.15;;
20154;SDS011;10238;49.556;10.956;2023-05-07T08:30:03;9.98;;;9.18;;
20154;SDS011;10238;49.556;10.956;2023-05-07T08:32:52;12.07;;;11.18;;
20154;SDS011;10238;49.556;10.956;2023-05-07T08:35:41;7.07;;;5.85;;
20154;SDS011;10238;49.556;10.956;2023-05-07T08:38:28;10.30;;;9.45;;
20154;SDS011;10238;49.556;10.956;2023-05-07T08:41:18;6.18;;;5.57;;
20154;SDS011;10238;49.556;10.956;2023-05-07T08:44:06;9.23;;;8.63;;
20154;SDS011;10238;49.556;10.956;2023-05-07T08:47:00;12.10;;;11.40;;
20154;SDS011;10238;49.556;10.956;2023-05-07T08:49:49;18.05;;;16.88;;
20154;SDS011;10238;49.556;10.956;2023-05-07T08:52:38;22.33;;;20.85;;
20154;SDS011;10238;49.556;10.956;2023-05-07T08:55:27;27.15;;;25.75;;
20154;SDS011;10238;49.556;10.956;2023-05-07T08:58:17;23.20;;;22.02;;
20154;SDS011;10238;49.556;10.956;2023-05-07T09:01:07;8.02;;;7.22;;
20154;SDS011;10238;49.556;10.956;2023-05-07T09:03:57;8.00;;;7.30;;
20154;SDS011;10238;49.556;10.956;2023-05-07T09:06:56;6.68;;;6.22;;
20154;SDS011;10238;49.556;10.956;2023-05-07T09:10:21;6.40;;;5.80;;
20154;SDS011;10238;49.556;10.956;2023-05-07T09:13:09;5.95;;;5.45;;
20154;SDS011;10238;49.556;10.956;2023-05-07T09:16:10;6.60;;;6.10;;
20154;SDS011;10238;49.556;10.956;2023-05-07T09:18:59;11.00;;;10.40;;
20154;SDS011;10238;49.556;10.956;2023-05-07T09:21:48;7.20;;;5.32;;
20154;SDS011;10238;49.556;10.956;2023-05-07T09:24:36;5.70;;;5.30;;
20154;SDS011;10238;49.556;10.956;2023-05-07T09:27:25;5.15;;;4.70;;
20154;SDS011;10238;49.556;10.956;2023-05-07T09:30:13;5.43;;;5.03;;
20154;SDS011;10238;49.556;10.956;2023-05-07T09:33:03;5.97;;;5.45;;
20154;SDS011;10238;49.556;10.956;2023-05-07T09:35:52;8.57;;;5.78;;
20154;SDS011;10238;49.556;10.956;2023-05-07T09:38:40;6.70;;;6.20;;
20154;SDS011;10238;49.556;10.956;2023-05-07T09:41:29;6.22;;;5.72;;
20154;SDS011;10238;49.556;10.956;2023-05-07T09:44:19;6.40;;;5.63;;
20154;SDS011;10238;49.556;10.956;2023-05-07T09:47:08;5.05;;;4.65;;
20154;SDS011;10238;49.556;10.956;2023-05-07T09:49:59;5.07;;;4.60;;
20154;SDS011;10238;49.556;10.956;2023-05-07T09:52:53;5.03;;;4.63;;
20154;SDS011;10238;49.556;10.956;2023-05-07T09:55:42;4.97;;;4.57;;
20154;SDS011;10238;49.556;10.956;2023-05-07T09:58:31;4.63;;;4.20;;
20154;SDS011;10238;49.556;10.956;2023-05-07T10:01:24;4.63;;;4.32;;
20154;SDS011;10238;49.556;10.956;2023-05-07T10:04:13;3.85;;;3.47;;
20154;SDS011;10238;49.556;10.956;2023-05-07T10:07:04;6.32;;;4.45;;
20154;SDS011;10238;49.556;10.956;2023-05-07T10:09:53;4.50;;;4.20;;
20154;SDS011;10238;49.556;10.956;2023-05-07T10:12:47;4.50;;;4.22;;
20154;SDS011;10238;49.556;10.956;2023-05-07T10:15:36;4.50;;;4.18;;
20154;SDS011;10238;49.556;10.956;2023-05-07T10:18:24;6.28;;;5.68;;
20154;SDS011;10238;49.556;10.956;2023-05-07T10:21:16;6.13;;;5.72;;
20154;SDS011;10238;49.556;10.956;2023-05-07T10:24:08;5.35;;;4.85;;
20154;SDS011;10238;49.556;10.956;2023-05-07T10:27:00;5.97;;;5.57;;
20154;SDS011;10238;49.556;10.956;2023-05-07T10:29:52;8.20;;;7.50;;
20154;SDS011;10238;49.556;10.956;2023-05-07T10:32:53;5.18;;;4.75;;
20154;SDS011;10238;49.556;10.956;2023-05-07T10:35:44;7.32;;;6.93;;
20154;SDS011;10238;49.556;10.956;2023-05-07T10:38:33;4.28;;;3.88;;
20154;SDS011;10238;49.556;10.956;2023-05-07T10:41:22;5.15;;;4.82;;
20154;SDS011;10238;49.556;10.956;2023-05-07T10:44:10;4.60;;;4.22;;
20154;SDS011;10238;49.556;10.956;2023-05-07T10:47:05;4.30;;;3.97;;
20154;SDS011;10238;49.556;10.956;2023-05-07T10:53:23;3.10;;;2.90;;
20154;SDS011;10238;49.556;10.956;2023-05-07T10:56:25;3.70;;;3.40;;
20154;SDS011;10238;49.556;10.956;2023-05-07T10:59:30;3.50;;;3.22;;
20154;SDS011;10238;49.556;10.956;2023-05-07T11:05:48;3.38;;;2.80;;
20154;SDS011;10238;49.556;10.956;2023-05-07T11:08:57;3.60;;;3.30;;
20154;SDS011;10238;49.556;10.956;2023-05-07T11:11:46;3.97;;;3.72;;
20154;SDS011;10238;49.556;10.956;2023-05-07T11:17:31;5.32;;;4.97;;
20154;SDS011;10238;49.556;10.956;2023-05-07T11:20:38;5.88;;;5.47;;
20154;SDS011;10238;49.556;10.956;2023-05-07T11:23:55;6.38;;;5.90;;
20154;SDS011;10238;49.556;10.956;2023-05-07T11:26:45;4.72;;;4.10;;
20154;SDS011;10238;49.556;10.956;2023-05-07T11:29:35;4.20;;;3.90;;
20154;SDS011;10238;49.556;10.956;2023-05-07T11:32:23;3.95;;;3.65;;
20154;SDS011;10238;49.556;10.956;2023-05-07T11:35:15;3.15;;;2.85;;
20154;SDS011;10238;49.556;10.956;2023-05-07T11:38:03;3.10;;;2.90;;
20154;SDS011;10238;49.556;10.956;2023-05-07T11:40:52;3.17;;;2.97;;
20154;SDS011;10238;49.556;10.956;2023-05-07T11:46:49;2.88;;;2.67;;
20154;SDS011;10238;49.556;10.956;2023-05-07T11:49:38;4.00;;;2.97;;
20154;SDS011;10238;49.556;10.956;2023-05-07T11:52:26;3.30;;;3.10;;
20154;SDS011;10238;49.556;10.956;2023-05-07T11:55:14;3.97;;;3.13;;
20154;SDS011;10238;49.556;10.956;2023-05-07T11:58:05;3.55;;;3.10;;
20154;SDS011;10238;49.556;10.956;2023-05-07T12:00:56;3.67;;;2.90;;
20154;SDS011;10238;49.556;10.956;2023-05-07T12:03:45;3.60;;;3.30;;
20154;SDS011;10238;49.556;10.956;2023-05-07T12:06:35;3.28;;;3.08;;
20154;SDS011;10238;49.556;10.956;2023-05-07T12:09:24;4.82;;;3.83;;
20154;SDS011;10238;49.556;10.956;2023-05-07T12:12:12;4.65;;;4.45;;
20154;SDS011;10238;49.556;10.956;2023-05-07T12:15:01;4.90;;;4.60;;
20154;SDS011;10238;49.556;10.956;2023-05-07T12:17:50;4.82;;;4.53;;
20154;SDS011;10238;49.556;10.956;2023-05-07T12:20:39;5.28;;;4.95;;
20154;SDS011;10238;49.556;10.956;2023-05-07T12:23:27;6.10;;;5.63;;
20154;SDS011;10238;49.556;10.956;2023-05-07T12:26:15;7.15;;;6.75;;
20154;SDS011;10238;49.556;10.956;2023-05-07T12:29:06;5.57;;;5.18;;
20154;SDS011;10238;49.556;10.956;2023-05-07T12:31:54;7.78;;;7.15;;
20154;SDS011;10238;49.556;10.956;2023-05-07T12:34:43;4.00;;;3.70;;
20154;SDS011;10238;49.556;10.956;2023-05-07T12:37:32;4.38;;;4.07;;
20154;SDS011;10238;49.556;10.956;2023-05-07T12:40:21;4.80;;;4.45;;
20154;SDS011;10238;49.556;10.956;2023-05-07T12:43:14;4.95;;;4.60;;
20154;SDS011;10238;49.556;10.956;2023-05-07T12:46:04;5.00;;;4.65;;
20154;SDS011;10238;49.556;10.956;2023-05-07T12:48:53;7.97;;;7.47;;
20154;SDS011;10238;49.556;10.956;2023-05-07T12:51:42;3.60;;;3.30;;
20154;SDS011;10238;49.556;10.956;2023-05-07T12:54:30;4.80;;;4.40;;
20154;SDS011;10238;49.556;10.956;2023-05-07T12:57:20;4.45;;;4.05;;
20154;SDS011;10238;49.556;10.956;2023-05-07T13:00:08;4.40;;;4.20;;
20154;SDS011;10238;49.556;10.956;2023-05-07T13:02:57;4.75;;;4.40;;
20154;SDS011;10238;49.556;10.956;2023-05-07T13:05:46;5.90;;;5.60;;
20154;SDS011;10238;49.556;10.956;2023-05-07T13:08:36;4.40;;;4.07;;
20154;SDS011;10238;49.556;10.956;2023-05-07T13:11:25;4.25;;;3.95;;
20154;SDS011;10238;49.556;10.956;2023-05-07T13:14:13;5.03;;;4.72;;
20154;SDS011;10238;49.556;10.956;2023-05-07T13:17:01;3.63;;;3.38;;
20154;SDS011;10238;49.556;10.956;2023-05-07T13:19:49;3.45;;;3.22;;
20154;SDS011;10238;49.556;10.956;2023-05-07T13:22:37;3.72;;;3.42;;
20154;SDS011;10238;49.556;10.956;2023-05-07T13:25:27;3.33;;;2.83;;
20154;SDS011;10238;49.556;10.956;2023-05-07T13:28:15;3.42;;;3.13;;
20154;SDS011;10238;49.556;10.956;2023-05-07T13:31:03;3.20;;;3.00;;
20154;SDS011;10238;49.556;10.956;2023-05-07T13:33:51;3.67;;;3.47;;
20154;SDS011;10238;49.556;10.956;2023-05-07T13:36:39;3.88;;;3.58;;
20154;SDS011;10238;49.556;10.956;2023-05-07T13:39:27;3.17;;;2.88;;
20154;SDS011;10238;49.556;10.956;2023-05-07T13:42:17;3.35;;;3.05;;
20154;SDS011;10238;49.556;10.956;2023-05-07T13:45:05;3.90;;;3.47;;
20154;SDS011;10238;49.556;10.956;2023-05-07T13:47:54;3.85;;;3.03;;
20154;SDS011;10238;49.556;10.956;2023-05-07T13:50:44;3.50;;;3.20;;
20154;SDS011;10238;49.556;10.956;2023-05-07T13:53:31;3.65;;;3.45;;
20154;SDS011;10238;49.556;10.956;2023-05-07T13:56:19;3.45;;;3.25;;
20154;SDS011;10238;49.556;10.956;2023-05-07T13:59:10;5.57;;;5.18;;
20154;SDS011;10238;49.556;10.956;2023-05-07T14:01:59;5.40;;;5.00;;
20154;SDS011;10238;49.556;10.956;2023-05-07T14:04:47;4.13;;;3.80;;
20154;SDS011;10238;49.556;10.956;2023-05-07T14:07:35;4.05;;;3.75;;
20154;SDS011;10238;49.556;10.956;2023-05-07T14:10:23;3.85;;;3.58;;
20154;SDS011;10238;49.556;10.956;2023-05-07T14:13:12;4.88;;;4.57;;
20154;SDS011;10238;49.556;10.956;2023-05-07T14:16:02;6.10;;;5.70;;
20154;SDS011;10238;49.556;10.956;2023-05-07T14:18:51;9.30;;;8.70;;
20154;SDS011;10238;49.556;10.956;2023-05-07T14:21:42;7.63;;;7.13;;
20154;SDS011;10238;49.556;10.956;2023-05-07T14:24:31;7.80;;;7.30;;
20154;SDS011;10238;49.556;10.956;2023-05-07T14:27:23;5.25;;;4.85;;
20154;SDS011;10238;49.556;10.956;2023-05-07T14:30:13;5.20;;;4.90;;
20154;SDS011;10238;49.556;10.956;2023-05-07T14:33:06;8.60;;;8.00;;
20154;SDS011;10238;49.556;10.956;2023-05-07T14:35:54;6.18;;;5.70;;
20154;SDS011;10238;49.556;10.956;2023-05-07T14:38:43;9.02;;;8.38;;
20154;SDS011;10238;49.556;10.956;2023-05-07T14:41:31;6.68;;;6.22;;
20154;SDS011;10238;49.556;10.956;2023-05-07T14:44:19;6.97;;;6.57;;
20154;SDS011;10238;49.556;10.956;2023-05-07T14:47:07;4.80;;;4.40;;
20154;SDS011;10238;49.556;10.956;2023-05-07T14:49:56;8.90;;;8.40;;
20154;SDS011;10238;49.556;10.956;2023-05-07T14:52:47;6.20;;;5.80;;
20154;SDS011;10238;49.556;10.956;2023-05-07T14:55:35;4.25;;;3.95;;
20154;SDS011;10238;49.556;10.956;2023-05-07T14:58:22;7.55;;;7.15;;
20154;SDS011;10238;49.556;10.956;2023-05-07T15:01:11;6.15;;;5.75;;
20154;SDS011;10238;49.556;10.956;2023-05-07T15:03:59;9.27;;;8.63;;
20154;SDS011;10238;49.556;10.956;2023-05-07T15:06:49;7.95;;;7.47;;
20154;SDS011;10238;49.556;10.956;2023-05-07T15:09:37;8.80;;;8.20;;
20154;SDS011;10238;49.556;10.956;2023-05-07T15:12:25;5.93;;;5.45;;
20154;SDS011;10238;49.556;10.956;2023-05-07T15:15:13;7.70;;;7.25;;
20154;SDS011;10238;49.556;10.956;2023-05-07T15:18:01;9.20;;;8.70;;
20154;SDS011;10238;49.556;10.956;2023-05-07T15:20:52;8.55;;;8.05;;
20154;SDS011;10238;49.556;10.956;2023-05-07T15:23:46;7.20;;;6.70;;
20154;SDS011;10238;49.556;10.956;2023-05-07T15:26:38;8.70;;;8.25;;
20154;SDS011;10238;49.556;10.956;2023-05-07T15:29:26;4.13;;;3.83;;
20154;SDS011;10238;49.556;10.956;2023-05-07T15:32:14;4.00;;;3.70;;
20154;SDS011;10238;49.556;10.956;2023-05-07T15:35:02;3.90;;;3.60;;
20154;SDS011;10238;49.556;10.956;2023-05-07T15:37:51;4.50;;;3.40;;
20154;SDS011;10238;49.556;10.956;2023-05-07T15:40:40;4.18;;;3.20;;
20154;SDS011;10238;49.556;10.956;2023-05-07T15:43:28;4.20;;;3.80;;
20154;SDS011;10238;49.556;10.956;2023-05-07T15:46:17;4.22;;;3.65;;
20154;SDS011;10238;49.556;10.956;2023-05-07T15:49:06;4.43;;;4.13;;
20154;SDS011;10238;49.556;10.956;2023-05-07T15:51:54;4.15;;;3.83;;
20154;SDS011;10238;49.556;10.956;2023-05-07T15:54:42;4.75;;;4.35;;
20154;SDS011;10238;49.556;10.956;2023-05-07T15:57:31;4.25;;;3.95;;
20154;SDS011;10238;49.556;10.956;2023-05-07T16:00:19;5.95;;;5.55;;
20154;SDS011;10238;49.556;10.956;2023-05-07T16:03:08;6.63;;;6.20;;
20154;SDS011;10238;49.556;10.956;2023-05-07T16:05:56;6.05;;;5.65;;
20154;SDS011;10238;49.556;10.956;2023-05-07T16:08:45;5.95;;;5.65;;
20154;SDS011;10238;49.556;10.956;2023-05-07T16:11:33;6.30;;;5.80;;
20154;SDS011;10238;49.556;10.956;2023-05-07T16:14:22;6.20;;;5.80;;
20154;SDS011;10238;49.556;10.956;2023-05-07T16:17:10;5.47;;;5.00;;
20154;SDS011;10238;49.556;10.956;2023-05-07T16:19:58;5.97;;;5.47;;
20154;SDS011;10238;49.556;10.956;2023-05-07T16:22:46;8.35;;;7.90;;
20154;SDS011;10238;49.556;10.956;2023-05-07T16:25:34;11.18;;;10.57;;
20154;SDS011;10238;49.556;10.956;2023-05-07T16:28:23;12.00;;;11.20;;
20154;SDS011;10238;49.556;10.956;2023-05-07T16:31:13;10.85;;;10.35;;
20154;SDS011;10238;49.556;10.956;2023-05-07T16:34:01;10.40;;;9.63;;
20154;SDS011;10238;49.556;10.956;2023-05-07T16:36:49;7.93;;;7.53;;
20154;SDS011;10238;49.556;10.956;2023-05-07T16:39:37;7.30;;;6.90;;
20154;SDS011;10238;49.556;10.956;2023-05-07T16:42:26;7.22;;;6.72;;
20154;SDS011;10238;49.556;10.956;2023-05-07T16:45:14;6.75;;;6.25;;
20154;SDS011;10238;49.556;10.956;2023-05-07T16:48:05;6.05;;;5.65;;
20154;SDS011;10238;49.556;10.956;2023-05-07T16:50:53;6.78;;;6.40;;
20154;SDS011;10238;49.556;10.956;2023-05-07T16:53:41;4.53;;;4.22;;
20154;SDS011;10238;49.556;10.956;2023-05-07T16:56:29;4.13;;;3.83;;